Time;durP1;ratioP1;P1;durP2;ratioP2;P2;SDS_P1;SDS_P2;PMS_P1;PMS_P2;Temp;Humidity;BMP_temperature;BMP_pressure;BME280_temperature;BME280_humidity;BME280_pressure;Samples;Min_cycle;Max_cycle;Signal;HPM_P1;HPM_P2
2022/02/24 00:00:28;;;;;;;8.48;2.10;;;;;;;6.97;100.00;101426.78;10078170;28;20413;-71
2022/02/24 00:05:25;;;;;;;9.60;2.28;;;;;;;6.99;100.00;101421.88;10076760;28;20110;-71
2022/02/24 00:10:21;;;;;;;8.82;1.77;;;;;;;6.94;100.00;101414.56;10088120;28;20138;-71
2022/02/24 00:15:18;;;;;;;9.73;1.98;;;;;;;6.91;100.00;101409.66;10079621;28;20051;-71
2022/02/24 00:20:14;;;;;;;13.77;2.25;;;;;;;6.93;100.00;101402.84;10082128;28;20075;-71
2022/02/24 00:25:11;;;;;;;9.90;1.75;;;;;;;6.87;100.00;101393.09;10080846;28;20074;-71
2022/02/24 00:30:09;;;;;;;8.73;1.55;;;;;;;6.91;100.00;101383.28;10080220;28;20098;-71
2022/02/24 00:35:06;;;;;;;7.97;1.60;;;;;;;6.93;100.00;101386.53;10087460;28;20055;-71
2022/02/24 00:40:03;;;;;;;11.65;2.00;;;;;;;6.99;100.00;101383.84;10078164;28;20047;-71
2022/02/24 00:44:59;;;;;;;5.78;1.80;;;;;;;7.05;100.00;101377.25;10078898;28;20513;-71
2022/02/24 00:49:57;;;;;;;7.50;1.83;;;;;;;7.01;100.00;101376.19;10090550;28;20083;-71
2022/02/24 00:54:53;;;;;;;9.32;1.83;;;;;;;6.98;100.00;101371.31;10087268;28;20038;-71
2022/02/24 00:59:51;;;;;;;9.77;2.33;;;;;;;6.99;100.00;101372.94;10074663;28;20087;-71
2022/02/24 01:04:48;;;;;;;8.13;1.70;;;;;;;6.93;100.00;101356.63;10074454;28;20493;-71
2022/02/24 01:09:47;;;;;;;10.55;1.92;;;;;;;6.94;100.00;101350.13;10082161;28;20047;-71
2022/02/24 01:14:44;;;;;;;11.82;2.08;;;;;;;6.97;100.00;101337.06;10084091;28;20133;-71
2022/02/24 01:19:41;;;;;;;8.15;1.55;;;;;;;7.06;100.00;101321.81;10077537;28;20130;-71
2022/02/24 01:24:37;;;;;;;7.70;1.58;;;;;;;7.12;100.00;101307.06;10074652;28;20560;-71
2022/02/24 01:29:34;;;;;;;7.75;2.08;;;;;;;7.16;100.00;101308.16;10073500;28;20625;-71
2022/02/24 01:34:30;;;;;;;12.20;2.50;;;;;;;7.23;100.00;101300.47;10076341;28;20498;-71
2022/02/24 01:39:27;;;;;;;10.95;1.63;;;;;;;7.26;100.00;101290.94;10079134;28;20159;-71
2022/02/24 01:44:24;;;;;;;7.25;1.90;;;;;;;7.28;100.00;101289.56;10073194;28;20063;-71
2022/02/24 01:49:22;;;;;;;7.07;1.77;;;;;;;7.16;100.00;101280.94;10073091;28;20510;-71
2022/02/24 01:54:19;;;;;;;11.73;2.28;;;;;;;7.05;100.00;101273.94;10080558;28;20084;-72
2022/02/24 01:59:16;;;;;;;8.60;1.95;;;;;;;7.09;100.00;101285.88;10090096;28;20134;-72
2022/02/24 02:04:12;;;;;;;8.77;1.60;;;;;;;7.04;100.00;101262.25;10086813;28;20085;-70
2022/02/24 02:09:10;;;;;;;10.57;2.00;;;;;;;7.06;100.00;101259.25;10081065;28;20047;-72
2022/02/24 02:14:10;;;;;;;9.10;2.10;;;;;;;7.05;100.00;101252.19;10078770;28;20047;-70
2022/02/24 02:19:06;;;;;;;8.80;2.10;;;;;;;7.08;100.00;101241.56;10097319;28;20517;-70
2022/02/24 02:24:05;;;;;;;8.00;2.25;;;;;;;7.09;100.00;101242.38;10086020;28;20051;-70
2022/02/24 02:29:04;;;;;;;7.60;1.73;;;;;;;6.95;100.00;101237.56;10081647;28;20146;-70
2022/02/24 02:34:09;;;;;;;11.77;2.28;;;;;;;6.92;100.00;101232.69;10086691;28;20090;-70
2022/02/24 02:39:11;;;;;;;5.22;1.75;;;;;;;6.95;100.00;101213.09;10080319;28;20071;-70
2022/02/24 02:44:12;;;;;;;10.82;2.95;;;;;;;7.01;100.00;101207.59;10085255;28;20579;-70
2022/02/24 02:49:09;;;;;;;9.85;2.28;;;;;;;6.93;100.00;101207.13;10087999;28;20091;-71
2022/02/24 02:54:06;;;;;;;13.32;2.80;;;;;;;6.97;100.00;101201.13;10083059;28;20318;-71
2022/02/24 02:59:02;;;;;;;9.02;1.98;;;;;;;6.99;100.00;101188.06;10102920;28;20085;-70
2022/02/24 03:03:59;;;;;;;10.07;2.35;;;;;;;7.00;100.00;101195.13;10102660;28;20047;-70
2022/02/24 03:08:55;;;;;;;10.63;1.98;;;;;;;6.95;100.00;101193.25;10078041;28;20063;-70
2022/02/24 03:13:52;;;;;;;7.63;2.35;;;;;;;6.93;100.00;101188.09;10083121;28;20050;-70
2022/02/24 03:18:48;;;;;;;10.00;2.63;;;;;;;7.00;100.00;101179.63;10109743;28;20134;-70
2022/02/24 03:23:45;;;;;;;8.57;2.90;;;;;;;7.00;100.00;101173.38;10101728;28;20556;-70
2022/02/24 03:28:42;;;;;;;9.50;2.38;;;;;;;6.95;100.00;101177.75;10090959;28;20077;-70
2022/02/24 03:33:38;;;;;;;8.15;2.45;;;;;;;6.98;100.00;101170.13;10078063;28;20063;-70
2022/02/24 03:38:35;;;;;;;12.27;2.55;;;;;;;6.95;100.00;101166.88;10077956;28;20047;-70
2022/02/24 03:43:31;;;;;;;9.93;2.60;;;;;;;6.91;100.00;101165.81;10077884;28;20098;-70
2022/02/24 03:48:28;;;;;;;9.85;2.85;;;;;;;6.88;100.00;101160.13;10077366;28;20047;-70
2022/02/24 03:53:24;;;;;;;12.60;2.60;;;;;;;6.95;100.00;101150.56;10080213;28;20965;-70
2022/02/24 03:58:20;;;;;;;13.27;2.63;;;;;;;6.97;100.00;101147.56;10107049;28;20488;-70
2022/02/24 04:03:17;;;;;;;10.32;2.42;;;;;;;7.01;100.00;101131.47;10077072;28;20135;-71
2022/02/24 04:08:14;;;;;;;9.35;2.15;;;;;;;7.01;100.00;101139.63;10089122;28;20517;-70
2022/02/24 04:13:10;;;;;;;11.82;2.22;;;;;;;7.00;100.00;101132.59;10077405;28;20489;-70
2022/02/24 04:18:07;;;;;;;10.30;2.47;;;;;;;7.04;100.00;101114.63;10122723;28;20085;-70
2022/02/24 04:23:03;;;;;;;7.90;2.30;;;;;;;7.05;100.00;101149.66;10115676;28;20043;-70
2022/02/24 04:28:00;;;;;;;12.35;2.40;;;;;;;7.07;100.00;101119.47;10105929;28;20102;-70
2022/02/24 04:32:57;;;;;;;13.60;2.42;;;;;;;7.05;100.00;101118.94;10103897;28;20055;-72
2022/02/24 04:37:53;;;;;;;9.57;2.35;;;;;;;7.05;100.00;101113.50;10103505;28;20062;-71
2022/02/24 04:42:50;;;;;;;7.65;2.05;;;;;;;7.00;100.00;101098.06;10103680;28;20058;-72
2022/02/24 04:47:46;;;;;;;8.85;2.20;;;;;;;6.90;100.00;101085.38;10099571;28;20425;-71
2022/02/24 04:52:44;;;;;;;13.30;4.20;;;;;;;6.97;100.00;101081.50;10075850;28;20138;-71
2022/02/24 04:57:40;;;;;;;9.63;2.30;;;;;;;6.91;100.00;101072.56;10074539;28;20043;-71
2022/02/24 05:02:37;;;;;;;10.82;2.63;;;;;;;6.92;100.00;101053.28;10084176;28;20921;-72
2022/02/24 05:07:33;;;;;;;11.70;3.55;;;;;;;6.81;100.00;101049.00;10073881;28;20420;-70
2022/02/24 05:12:30;;;;;;;10.30;2.47;;;;;;;6.87;100.00;101056.03;10079935;28;20039;-71
2022/02/24 05:17:27;;;;;;;12.60;2.70;;;;;;;6.91;100.00;101048.91;10078805;28;20134;-71
2022/02/24 05:22:23;;;;;;;14.68;2.90;;;;;;;6.87;100.00;101039.72;10091148;28;20047;-71
2022/02/24 05:27:20;;;;;;;11.77;2.45;;;;;;;6.86;100.00;101038.09;10080721;28;20685;-71
2022/02/24 05:32:17;;;;;;;12.20;2.72;;;;;;;6.85;100.00;101031.03;10086069;28;20505;-70
2022/02/24 05:37:14;;;;;;;11.40;2.75;;;;;;;6.78;100.00;101030.56;10082073;28;20115;-69
2022/02/24 05:42:11;;;;;;;10.43;2.58;;;;;;;6.82;100.00;101020.72;10076334;28;20047;-71
2022/02/24 05:47:17;;;;;;;12.80;3.08;;;;;;;6.84;100.00;101018.53;10089088;28;20106;-71
2022/02/24 05:52:16;;;;;;;10.50;2.60;;;;;;;6.76;100.00;101007.50;10073619;28;20102;-72
2022/02/24 05:57:15;;;;;;;12.70;2.95;;;;;;;6.73;100.00;101000.72;10083716;28;20055;-71
2022/02/24 06:02:11;;;;;;;13.55;3.40;;;;;;;6.80;100.00;100994.94;10073446;28;20050;-71
2022/02/24 06:07:09;;;;;;;9.38;3.17;;;;;;;6.81;100.00;101000.09;10074838;28;20059;-72
2022/02/24 06:12:05;;;;;;;12.32;3.25;;;;;;;6.82;100.00;100982.66;10073209;28;20047;-71
2022/02/24 06:17:02;;;;;;;11.20;2.85;;;;;;;6.86;100.00;100994.59;10093500;28;20428;-71
2022/02/24 06:21:58;;;;;;;13.88;3.25;;;;;;;6.83;100.00;100978.88;10079845;28;20040;-71
2022/02/24 06:26:55;;;;;;;12.60;3.05;;;;;;;6.87;100.00;100988.09;10094277;28;20481;-71
2022/02/24 06:31:51;;;;;;;12.95;3.30;;;;;;;6.89;100.00;100983.19;10084507;28;20047;-71
2022/02/24 06:36:48;;;;;;;18.88;3.70;;;;;;;6.91;100.00;100975.53;10093617;28;20054;-71
2022/02/24 06:41:45;;;;;;;12.63;3.42;;;;;;;6.90;100.00;100973.91;10085298;28;20052;-71
2022/02/24 06:46:42;;;;;;;11.18;3.05;;;;;;;6.99;100.00;100973.31;10099911;28;20501;-71
2022/02/24 06:51:38;;;;;;;12.05;3.72;;;;;;;6.98;100.00;100982.53;10080637;28;20051;-71
2022/02/24 06:56:35;;;;;;;10.70;2.30;;;;;;;6.98;100.00;100968.94;10092692;28;20143;-71
2022/02/24 07:01:31;;;;;;;12.75;3.00;;;;;;;6.98;100.00;100958.06;10113690;28;20476;-71
2022/02/24 07:06:28;;;;;;;14.00;3.35;;;;;;;7.05;100.00;100939.50;10083173;28;20050;-71
2022/02/24 07:11:24;;;;;;;10.52;3.13;;;;;;;7.03;100.00;100928.09;10079234;28;20051;-71
2022/02/24 07:16:21;;;;;;;14.98;3.65;;;;;;;7.07;100.00;100940.03;10088941;28;20083;-71
2022/02/24 07:21:18;;;;;;;13.40;3.25;;;;;;;6.97;100.00;100945.59;10079186;28;20103;-71
2022/02/24 07:26:14;;;;;;;9.98;3.50;;;;;;;6.99;100.00;100935.25;10086055;28;20047;-71
2022/02/24 07:31:12;;;;;;;11.75;3.55;;;;;;;7.04;100.00;100940.63;10086450;28;20133;-71
2022/02/24 07:36:09;;;;;;;14.93;4.22;;;;;;;7.04;100.00;100932.47;10093558;28;20047;-71
2022/02/24 07:41:05;;;;;;;8.98;3.50;;;;;;;7.06;100.00;100927.53;10092625;28;20081;-71
2022/02/24 07:46:03;;;;;;;10.63;4.47;;;;;;;7.14;100.00;100924.19;10089624;28;20501;-71
2022/02/24 07:51:00;;;;;;;9.75;4.03;;;;;;;7.05;100.00;100920.47;10090151;28;20074;-71
2022/02/24 07:55:56;;;;;;;10.98;4.05;;;;;;;7.05;100.00;100896.00;10118842;28;20138;-71
2022/02/24 08:00:52;;;;;;;11.48;3.45;;;;;;;7.03;100.00;100900.91;10128877;28;20070;-71
2022/02/24 08:05:49;;;;;;;13.30;4.75;;;;;;;7.22;100.00;100887.38;10095492;28;20086;-71
2022/02/24 08:10:49;;;;;;;22.75;5.25;;;;;;;7.27;100.00;100904.44;10090600;28;20101;-71
2022/02/24 08:15:45;;;;;;;12.35;3.58;;;;;;;7.23;100.00;100889.81;10095890;28;20054;-71
2022/02/24 08:20:42;;;;;;;12.20;3.58;;;;;;;7.25;100.00;100892.25;10084677;28;20050;-71
2022/02/24 08:25:38;;;;;;;13.27;3.40;;;;;;;7.40;100.00;100896.66;10086995;28;20476;-70
2022/02/24 08:30:35;;;;;;;12.68;3.30;;;;;;;7.47;100.00;100873.47;10110683;28;20047;-71
2022/02/24 08:35:32;;;;;;;12.68;3.65;;;;;;;7.49;100.00;100870.44;10084540;28;20446;-71
2022/02/24 08:40:28;;;;;;;13.50;3.45;;;;;;;7.48;100.00;100857.94;10096043;28;20110;-71
2022/02/24 08:45:25;;;;;;;10.68;3.03;;;;;;;7.54;100.00;100852.13;10081243;28;20074;-71
2022/02/24 08:50:22;;;;;;;8.02;2.92;;;;;;;7.55;100.00;100842.06;10089126;28;20150;-71
2022/02/24 08:55:36;;;;;;;12.68;3.05;;;;;;;7.62;100.00;100834.34;10084331;28;20044;-71
2022/02/24 09:00:34;;;;;;;9.90;2.47;;;;;;;7.50;100.00;100817.66;10080720;28;20054;-71
2022/02/24 09:05:31;;;;;;;9.90;2.50;;;;;;;7.62;100.00;100804.41;10088581;28;20078;-71
2022/02/24 09:10:28;;;;;;;11.90;2.60;;;;;;;7.77;100.00;100798.72;10106275;28;20093;-71
2022/02/24 09:15:25;;;;;;;10.88;3.22;;;;;;;7.78;100.00;100797.59;10086687;28;20109;-71
2022/02/24 09:20:21;;;;;;;10.05;2.47;;;;;;;7.76;100.00;100780.75;10074995;28;20056;-71
2022/02/24 09:25:18;;;;;;;12.55;2.92;;;;;;;7.90;100.00;100771.84;10081216;28;20043;-71
2022/02/24 09:30:14;;;;;;;10.75;3.88;;;;;;;8.10;100.00;100765.22;10074621;28;20540;-71
2022/02/24 09:35:13;;;;;;;10.02;2.33;;;;;;;7.96;100.00;100766.00;10097655;28;20452;-71
2022/02/24 09:40:11;;;;;;;8.77;2.17;;;;;;;7.93;100.00;100739.34;10073759;28;20492;-71
2022/02/24 09:45:27;;;;;;;11.77;3.20;;;;;;;7.99;100.00;100727.28;10077541;28;20489;-70
2022/02/24 09:50:27;;;;;;;8.80;2.25;;;;;;;8.13;100.00;100721.06;10080611;28;20055;-71
2022/02/24 09:55:23;;;;;;;9.35;2.58;;;;;;;8.50;100.00;100706.47;10089385;28;20058;-71
2022/02/24 10:00:20;;;;;;;12.70;2.80;;;;;;;8.96;100.00;100697.28;10090428;28;20167;-70
2022/02/24 10:05:17;;;;;;;10.73;2.28;;;;;;;8.98;100.00;100705.97;10085752;28;20456;-68
2022/02/24 10:10:33;;;;;;;14.00;2.25;;;;;;;9.38;100.00;100692.50;10100963;28;20086;-67
2022/02/24 10:15:31;;;;;;;10.25;2.33;;;;;;;9.08;100.00;100674.94;10105738;28;20047;-67
2022/02/24 10:20:35;;;;;;;8.63;2.47;;;;;;;9.53;100.00;100652.28;10102996;28;20062;-67
2022/02/24 10:25:50;;;;;;;10.05;2.10;;;;;;;9.09;100.00;100643.00;10094295;28;20051;-67
2022/02/24 10:30:51;;;;;;;9.23;2.15;;;;;;;9.23;100.00;100621.91;10093874;28;20047;-67
2022/02/24 10:35:48;;;;;;;10.27;2.33;;;;;;;9.45;100.00;100613.72;10102435;28;20493;-67
2022/02/24 10:40:49;;;;;;;10.27;2.40;;;;;;;9.36;100.00;100604.69;10102342;28;20067;-66
2022/02/24 10:46:09;;;;;;;15.32;2.40;;;;;;;9.35;100.00;100591.34;10091224;28;20051;-67
2022/02/24 10:51:06;;;;;;;10.82;2.45;;;;;;;9.35;100.00;100570.34;10089149;28;20063;-67
2022/02/24 10:56:05;;;;;;;9.57;2.33;;;;;;;9.53;100.00;100562.22;10092462;28;20098;-67
2022/02/24 11:01:04;;;;;;;11.95;3.30;;;;;;;9.23;100.00;100561.91;10104848;28;20065;-67
2022/02/24 11:06:04;;;;;;;10.32;2.38;;;;;;;9.21;100.00;100553.22;10095251;28;20051;-67
2022/02/24 11:11:02;;;;;;;12.27;2.60;;;;;;;9.26;100.00;100542.19;10087003;28;20051;-67
2022/02/24 11:15:59;;;;;;;11.85;2.60;;;;;;;9.41;100.00;100530.06;10080142;28;20047;-67
2022/02/24 11:20:57;;;;;;;12.25;2.65;;;;;;;9.36;100.00;100528.28;10086670;28;20067;-67
2022/02/24 11:26:00;;;;;;;12.35;2.70;;;;;;;9.27;100.00;100513.78;10086070;28;20042;-67
2022/02/24 11:31:05;;;;;;;15.48;2.47;;;;;;;9.16;100.00;100501.53;10085130;28;20055;-67
2022/02/24 11:36:16;;;;;;;12.07;3.00;;;;;;;9.26;100.00;100484.91;10089072;28;20047;-67
2022/02/24 11:41:16;;;;;;;14.27;2.60;;;;;;;9.25;100.00;100483.28;10078163;28;20450;-67
2022/02/24 11:46:13;;;;;;;15.50;3.70;;;;;;;9.15;100.00;100461.75;10091526;28;20078;-67
2022/02/24 11:51:20;;;;;;;11.38;2.55;;;;;;;9.15;100.00;100450.84;10116024;28;20054;-67
2022/02/24 11:56:20;;;;;;;12.65;2.78;;;;;;;9.28;100.00;100433.53;10087538;28;20051;-67
2022/02/24 12:01:38;;;;;;;10.35;3.05;;;;;;;9.24;100.00;100424.41;10087990;28;20049;-67
2022/02/24 12:06:38;;;;;;;10.38;2.53;;;;;;;9.24;100.00;100388.94;10083603;28;20038;-67
2022/02/24 12:11:45;;;;;;;10.38;2.83;;;;;;;9.38;100.00;100381.41;10094541;28;20048;-67
2022/02/24 12:17:01;;;;;;;11.43;2.50;;;;;;;9.53;100.00;100373.91;10086832;28;20053;-67
2022/02/24 12:22:15;;;;;;;9.40;3.13;;;;;;;10.13;100.00;100356.72;10101628;28;20109;-67
2022/02/24 12:27:42;;;;;;;9.07;2.72;;;;;;;10.89;100.00;100341.59;10107744;28;20520;-67
2022/02/24 12:32:40;;;;;;;8.45;2.50;;;;;;;10.58;100.00;100323.50;10089223;28;21540;-67
2022/02/24 12:37:41;;;;;;;8.40;2.72;;;;;;;10.39;100.00;100329.34;10090343;28;20112;-67
2022/02/24 12:42:37;;;;;;;9.32;3.00;;;;;;;10.53;100.00;100301.81;10095752;28;20106;-67
2022/02/24 12:47:34;;;;;;;11.75;3.20;;;;;;;10.25;100.00;100296.75;10085078;28;20098;-67
2022/02/24 12:52:31;;;;;;;16.83;4.10;;;;;;;11.11;100.00;100283.81;10079415;28;20445;-67
2022/02/24 12:57:27;;;;;;;10.00;3.55;;;;;;;10.63;100.00;100290.53;10071490;28;20047;-67
2022/02/24 13:02:24;;;;;;;9.48;2.80;;;;;;;10.18;100.00;100274.59;10084636;28;20098;-67
2022/02/24 13:12:40;;;;;;;7.80;2.75;;;;;;;10.00;100.00;100241.06;10077402;28;20112;-67
2022/02/24 13:17:37;;;;;;;11.05;2.58;;;;;;;9.74;100.00;100227.44;10079758;28;20122;-67
2022/02/24 13:22:34;;;;;;;10.63;2.60;;;;;;;9.56;100.00;100225.88;10084198;28;20043;-68
2022/02/24 13:27:30;;;;;;;9.88;2.67;;;;;;;9.60;100.00;100205.00;10077343;28;20073;-67
2022/02/24 13:32:27;;;;;;;12.00;3.28;;;;;;;9.33;100.00;100209.69;10075418;28;20075;-67
2022/02/24 13:37:34;;;;;;;8.52;2.58;;;;;;;9.29;100.00;100176.00;10081551;28;20070;-68
2022/02/24 13:42:31;;;;;;;7.68;2.15;;;;;;;9.37;100.00;100164.25;10084147;28;20049;-67
2022/02/24 13:47:27;;;;;;;7.97;2.22;;;;;;;9.34;100.00;100164.91;10074395;28;20050;-68
2022/02/24 13:52:28;;;;;;;9.45;2.65;;;;;;;9.29;100.00;100145.97;10076057;28;20050;-67
2022/02/24 13:57:25;;;;;;;9.40;3.30;;;;;;;9.45;100.00;100127.97;10080276;28;20122;-67
2022/02/24 14:02:22;;;;;;;9.32;2.22;;;;;;;10.21;100.00;100114.66;10080462;28;20043;-68
2022/02/24 14:07:30;;;;;;;10.10;2.67;;;;;;;10.41;100.00;100107.69;10089293;28;20122;-67
2022/02/24 14:12:28;;;;;;;4.57;1.23;;;;;;;9.93;100.00;100108.88;10083958;28;20051;-67
2022/02/24 14:17:24;;;;;;;4.97;1.50;;;;;;;10.01;100.00;100099.84;10079289;28;20075;-67
2022/02/24 14:22:21;;;;;;;6.18;1.70;;;;;;;9.83;100.00;100086.25;10076998;28;20039;-67
2022/02/24 14:27:17;;;;;;;5.82;1.42;;;;;;;9.90;100.00;100083.81;10073479;28;20133;-67
2022/02/24 14:32:14;;;;;;;5.50;1.73;;;;;;;9.81;100.00;100085.78;10075008;28;20074;-68
2022/02/24 14:37:11;;;;;;;5.10;1.80;;;;;;;9.71;100.00;100077.97;10084596;28;20047;-67
2022/02/24 14:42:08;;;;;;;7.82;1.40;;;;;;;9.41;100.00;100055.28;10075760;28;20043;-67
2022/02/24 14:47:04;;;;;;;3.70;1.00;;;;;;;9.45;100.00;100040.66;10073201;28;20047;-67
2022/02/24 14:52:01;;;;;;;10.25;1.30;;;;;;;9.48;100.00;100040.00;10079380;28;20485;-67
2022/02/24 14:56:59;;;;;;;5.03;1.00;;;;;;;9.62;100.00;100006.22;10082210;28;20134;-67
2022/02/24 15:01:55;;;;;;;4.43;1.20;;;;;;;9.68;100.00;99983.09;10078258;28;20050;-67
2022/02/24 15:06:52;;;;;;;5.32;1.00;;;;;;;9.71;100.00;100001.53;10081289;28;20143;-67
2022/02/24 15:11:52;;;;;;;6.13;1.38;;;;;;;9.99;100.00;99955.41;10078660;28;20090;-67
2022/02/24 15:16:53;;;;;;;5.72;1.30;;;;;;;9.77;100.00;99959.28;10085778;28;20714;-67
2022/02/24 15:21:49;;;;;;;5.78;1.35;;;;;;;9.66;100.00;99964.31;10089648;28;20098;-68
2022/02/24 15:26:46;;;;;;;5.75;1.30;;;;;;;9.60;100.00;99945.72;10089978;28;20611;-68
2022/02/24 15:31:42;;;;;;;5.07;1.50;;;;;;;9.63;100.00;99931.41;10084734;28;20066;-68
2022/02/24 15:36:40;;;;;;;8.95;1.52;;;;;;;9.49;100.00;99934.38;10087693;28;20047;-66
2022/02/24 15:41:37;;;;;;;5.03;1.35;;;;;;;9.47;100.00;99926.53;10081425;28;20049;-66
2022/02/24 15:46:33;;;;;;;4.45;1.48;;;;;;;9.41;100.00;99936.03;10082127;28;20062;-66
2022/02/24 15:51:30;;;;;;;7.63;1.65;;;;;;;9.35;100.00;99914.69;10078794;28;20464;-67
2022/02/24 15:56:32;;;;;;;11.77;1.43;;;;;;;9.29;100.00;99905.13;10082893;28;20519;-67
2022/02/24 16:01:29;;;;;;;10.30;2.17;;;;;;;9.32;100.00;99872.50;10082389;28;20142;-66
2022/02/24 16:06:26;;;;;;;6.55;1.33;;;;;;;9.24;100.00;99860.53;10093691;28;20134;-66
2022/02/24 16:11:23;;;;;;;8.15;1.30;;;;;;;9.33;100.00;99867.84;10092352;28;20071;-66
2022/02/24 16:16:21;;;;;;;8.30;1.77;;;;;;;9.22;100.00;99856.53;10077967;28;20073;-66
2022/02/24 16:21:18;;;;;;;6.38;1.23;;;;;;;9.14;100.00;99849.19;10080703;28;20047;-66
2022/02/24 16:26:16;;;;;;;6.60;1.40;;;;;;;9.11;100.00;99860.75;10082463;28;20047;-66
2022/02/24 16:31:30;;;;;;;5.20;1.48;;;;;;;9.05;100.00;99830.13;10079032;28;20501;-66
2022/02/24 16:36:47;;;;;;;7.43;1.23;;;;;;;8.99;100.00;99826.03;10072130;28;20219;-66
2022/02/24 16:41:44;;;;;;;9.57;1.52;;;;;;;9.00;100.00;99828.41;10075548;28;20071;-66
2022/02/24 16:46:40;;;;;;;5.00;1.27;;;;;;;8.95;100.00;99814.97;10072794;28;20770;-66
2022/02/24 16:51:37;;;;;;;10.70;2.97;;;;;;;8.92;100.00;99810.16;10077113;28;20141;-66
2022/02/24 16:56:34;;;;;;;8.32;1.80;;;;;;;8.83;100.00;99806.69;10074256;28;20074;-66
2022/02/24 17:01:51;;;;;;;7.50;1.33;;;;;;;8.81;100.00;99800.75;10083083;28;20051;-67
2022/02/24 17:06:49;;;;;;;6.35;1.83;;;;;;;8.87;100.00;99801.41;10070986;28;20055;-66
2022/02/24 17:11:46;;;;;;;7.50;1.88;;;;;;;8.82;100.00;99794.19;10071441;28;20075;-67
2022/02/24 17:16:43;;;;;;;6.38;1.77;;;;;;;8.85;100.00;99821.59;10073397;28;20505;-67
2022/02/24 17:21:40;;;;;;;9.77;1.77;;;;;;;7.55;100.00;99966.00;10071841;28;20047;-65
2022/02/24 17:26:41;;;;;;;4.63;0.73;;;;;;;6.03;100.00;99983.91;10080222;28;20051;-65
2022/02/24 17:31:39;;;;;;;3.63;0.70;;;;;;;5.38;100.00;100017.50;10102104;28;20521;-64
2022/02/24 17:36:39;;;;;;;0.50;0.20;;;;;;;4.80;100.00;100040.47;10070386;28;20051;-64
2022/02/24 17:41:36;;;;;;;1.90;0.43;;;;;;;4.55;100.00;100054.38;10071299;28;20071;-65
2022/02/24 17:46:33;;;;;;;2.00;0.32;;;;;;;4.47;100.00;100090.25;10084647;28;20098;-65
2022/02/24 17:51:29;;;;;;;0.85;0.30;;;;;;;4.27;100.00;100108.38;10071623;28;20055;-65
2022/02/24 17:56:27;;;;;;;2.67;0.80;;;;;;;3.86;100.00;100103.47;10085947;28;20055;-65
2022/02/24 18:01:24;;;;;;;1.45;0.47;;;;;;;3.86;100.00;100129.72;10082599;28;20847;-65
2022/02/24 18:06:20;;;;;;;1.35;0.40;;;;;;;3.58;100.00;100143.75;10079621;28;20050;-64
2022/02/24 18:11:17;;;;;;;2.70;0.55;;;;;;;3.56;100.00;100167.56;10071071;28;20135;-65
2022/02/24 18:16:13;;;;;;;1.45;0.30;;;;;;;3.53;100.00;100207.88;10081291;28;20117;-65
2022/02/24 18:21:10;;;;;;;1.60;0.70;;;;;;;3.35;100.00;100209.38;10077744;28;20148;-65
2022/02/24 18:26:07;;;;;;;2.80;1.08;;;;;;;3.31;100.00;100211.03;10072120;28;20126;-65
2022/02/24 18:31:03;;;;;;;3.30;1.13;;;;;;;3.41;100.00;100204.72;10080262;28;20047;-65
2022/02/24 18:36:01;;;;;;;3.13;1.30;;;;;;;3.24;100.00;100248.34;10078708;28;20081;-66
2022/02/24 18:40:58;;;;;;;3.60;1.40;;;;;;;3.23;100.00;100277.28;10090330;28;20051;-66
2022/02/24 18:45:54;;;;;;;3.20;1.23;;;;;;;3.09;100.00;100263.59;10083065;28;20464;-66
2022/02/24 18:50:53;;;;;;;8.55;2.20;;;;;;;3.16;100.00;100280.28;10082712;28;20465;-67
2022/02/24 18:55:50;;;;;;;4.38;1.95;;;;;;;3.22;100.00;100291.06;10088147;28;20078;-66
2022/02/24 19:00:47;;;;;;;4.35;1.27;;;;;;;3.12;100.00;100319.75;10086073;28;20085;-66
2022/02/24 19:05:44;;;;;;;2.15;0.90;;;;;;;2.95;100.00;100365.22;10095195;28;20141;-66
2022/02/24 19:10:41;;;;;;;3.65;1.23;;;;;;;2.97;100.00;100368.44;10085771;28;20464;-66
2022/02/24 19:15:37;;;;;;;4.20;1.50;;;;;;;2.83;100.00;100383.59;10087144;28;20138;-65
2022/02/24 19:20:35;;;;;;;4.35;1.10;;;;;;;2.91;100.00;100364.13;10086716;28;20110;-68
2022/02/24 19:25:32;;;;;;;4.60;1.60;;;;;;;3.04;100.00;100385.16;10092496;28;20664;-63
2022/02/24 19:30:28;;;;;;;3.67;1.40;;;;;;;3.02;100.00;100381.94;10076424;28;20055;-63
2022/02/24 19:35:25;;;;;;;3.00;1.35;;;;;;;2.83;100.00;100416.00;10087255;28;20079;-66
2022/02/24 19:40:21;;;;;;;2.65;1.25;;;;;;;2.90;100.00;100416.50;10082834;28;20071;-65
2022/02/24 19:45:18;;;;;;;2.20;1.00;;;;;;;2.90;100.00;100427.31;10085497;28;20083;-66
2022/02/24 19:50:14;;;;;;;4.57;1.20;;;;;;;2.81;100.00;100428.94;10085370;28;20051;-66
2022/02/24 19:55:11;;;;;;;3.33;1.38;;;;;;;2.72;100.00;100429.50;10088362;28;20741;-65
2022/02/24 20:00:09;;;;;;;4.53;1.75;;;;;;;2.87;100.00;100454.88;10081440;28;20669;-65
2022/02/24 20:05:06;;;;;;;8.65;2.85;;;;;;;2.86;100.00;100442.47;10090483;28;20565;-65
2022/02/24 20:10:03;;;;;;;3.30;1.55;;;;;;;2.75;100.00;100457.84;10082617;28;20062;-65
2022/02/24 20:15:00;;;;;;;2.83;1.75;;;;;;;2.73;100.00;100454.63;10085469;28;20071;-69
2022/02/24 20:19:56;;;;;;;2.38;0.82;;;;;;;2.73;100.00;100487.81;10096607;28;20492;-65
2022/02/24 20:24:53;;;;;;;4.70;1.98;;;;;;;2.77;100.00;100500.78;10084299;28;20094;-65
2022/02/24 20:29:51;;;;;;;3.70;1.40;;;;;;;2.51;100.00;100490.00;10093305;28;20042;-65
2022/02/24 20:34:48;;;;;;;3.25;1.33;;;;;;;2.48;100.00;100495.91;10091418;28;20047;-66
2022/02/24 20:39:45;;;;;;;4.90;2.55;;;;;;;2.39;100.00;100502.94;10092706;28;20062;-65
2022/02/24 20:45:00;;;;;;;3.50;1.50;;;;;;;2.43;100.00;100510.22;10087760;28;20191;-66
2022/02/24 20:49:58;;;;;;;3.80;1.70;;;;;;;2.46;100.00;100525.06;10084735;28;20138;-66
2022/02/24 20:54:54;;;;;;;5.40;2.28;;;;;;;2.47;100.00;100516.72;10078270;28;20047;-66
2022/02/24 20:59:52;;;;;;;6.93;3.05;;;;;;;2.48;100.00;100521.03;10088646;28;20543;-65
2022/02/24 21:04:49;;;;;;;4.57;2.25;;;;;;;2.57;100.00;100558.28;10078670;28;20130;-65
2022/02/24 21:09:46;;;;;;;6.72;2.85;;;;;;;2.52;100.00;100572.56;10070470;28;20047;-65
2022/02/24 21:14:43;;;;;;;3.33;1.13;;;;;;;2.51;100.00;100576.38;10076641;28;20078;-65
2022/02/24 21:19:40;;;;;;;4.18;1.70;;;;;;;2.50;100.00;100586.31;10068550;28;20086;-66
2022/02/24 21:24:36;;;;;;;4.53;1.50;;;;;;;2.50;100.00;100601.72;10075089;28;20098;-65
2022/02/24 21:29:33;;;;;;;5.78;1.25;;;;;;;2.50;100.00;100604.41;10072984;28;20477;-65
2022/02/24 21:34:29;;;;;;;3.08;1.15;;;;;;;2.28;100.00;100610.84;10079180;28;20081;-66
2022/02/24 21:39:26;;;;;;;3.05;1.00;;;;;;;2.39;100.00;100637.84;10099446;28;20074;-65
2022/02/24 21:44:22;;;;;;;5.07;1.48;;;;;;;2.29;100.00;100644.81;10082155;28;20516;-65
2022/02/24 21:49:19;;;;;;;4.57;0.60;;;;;;;2.25;100.00;100642.91;10083441;28;20505;-65
2022/02/24 21:54:15;;;;;;;8.40;0.90;;;;;;;2.28;100.00;100640.53;10080018;28;20494;-65
2022/02/24 21:59:12;;;;;;;3.05;0.70;;;;;;;2.29;100.00;100650.22;10077645;28;20055;-65
2022/02/24 22:04:08;;;;;;;3.72;1.25;;;;;;;2.30;100.00;100657.25;10074123;28;20536;-65
2022/02/24 22:09:05;;;;;;;0.82;0.30;;;;;;;2.26;100.00;100656.16;10081217;28;20047;-65
2022/02/24 22:14:01;;;;;;;8.60;1.20;;;;;;;2.20;100.00;100662.59;10092019;28;20047;-65
2022/02/24 22:18:58;;;;;;;4.18;1.00;;;;;;;2.20;100.00;100667.19;10085678;28;20059;-65
2022/02/24 22:23:54;;;;;;;3.53;0.85;;;;;;;2.18;100.00;100670.16;10082651;28;20596;-65
2022/02/24 22:28:51;;;;;;;3.45;0.43;;;;;;;2.12;100.00;100682.00;10077207;28;20075;-65
2022/02/24 22:33:47;;;;;;;3.97;0.63;;;;;;;2.09;100.00;100704.09;10091721;28;20486;-65
2022/02/24 22:38:46;;;;;;;3.83;0.35;;;;;;;2.05;100.00;100713.78;10087820;28;20505;-65
2022/02/24 22:43:43;;;;;;;3.83;0.70;;;;;;;2.12;100.00;100714.38;10082389;28;20047;-65
2022/02/24 22:48:39;;;;;;;3.85;0.70;;;;;;;2.08;100.00;100727.53;10087758;28;20753;-65